Time,TemperatureF,DewpointF,PressureIn,WindDirection,WindDirectionDegrees,WindSpeedMPH,WindSpeedGustMPH,Humidity,HourlyPrecipIn,Conditions,Clouds,dailyrainin,SoftwareType,DateUTC
2013-10-03 00:02:00,39.7,16.8,23.45,WSW,254,0.0,0.0,39,0.00,,---,0.00,VWS V14.00,2013-10-03 07:02:00,
2013-10-03 00:07:00,39.7,16.8,23.45,WSW,254,0.0,0.0,39,0.00,,---,0.00,VWS V14.00,2013-10-03 07:07:00,
2013-10-03 00:12:00,39.6,16.7,23.45,WSW,254,0.0,0.0,39,0.00,,---,0.00,VWS V14.00,2013-10-03 07:12:00,
2013-10-03 00:17:00,39.4,16.5,23.45,WSW,254,0.0,0.0,39,0.00,,---,0.00,VWS V14.00,2013-10-03 07:17:00,
2013-10-03 00:22:00,39.2,16.3,23.45,WSW,254,0.0,0.0,39,0.00,,---,0.00,VWS V14.00,2013-10-03 07:22:00,
2013-10-03 00:27:00,39.2,16.3,23.45,WSW,254,0.0,0.0,39,0.00,,---,0.00,VWS V14.00,2013-10-03 07:27:00,
2013-10-03 00:32:00,39.2,16.3,23.45,WSW,254,0.0,0.0,39,0.00,,---,0.00,VWS V14.00,2013-10-03 07:32:00,
2013-10-03 00:37:00,39.0,16.2,23.45,WSW,254,0.0,0.0,39,0.00,,---,0.00,VWS V14.00,2013-10-03 07:37:00,
2013-10-03 00:42:00,38.8,16.0,23.45,WSW,254,0.0,0.0,39,0.00,,---,0.00,VWS V14.00,2013-10-03 07:42:00,
2013-10-03 00:47:00,38.8,16.0,23.45,WSW,254,0.0,0.0,39,0.00,,---,0.00,VWS V14.00,2013-10-03 07:47:00,
2013-10-03 00:52:00,38.7,15.9,23.45,WSW,254,0.0,0.0,39,0.00,,---,0.00,VWS V14.00,2013-10-03 07:52:00,
2013-10-03 00:57:00,38.7,15.9,23.45,WSW,254,0.0,0.0,39,0.00,,---,0.00,VWS V14.00,2013-10-03 07:57:00,
2013-10-03 01:02:00,38.5,15.7,23.45,WSW,254,0.0,0.0,39,0.00,,---,0.00,VWS V14.00,2013-10-03 08:02:00,
2013-10-03 01:07:00,38.5,15.7,23.45,WSW,254,0.0,0.0,39,0.00,,---,0.00,VWS V14.00,2013-10-03 08:07:00,
2013-10-03 01:12:00,38.3,15.5,23.45,WSW,254,0.0,0.0,39,0.00,,---,0.00,VWS V14.00,2013-10-03 08:12:00,
2013-10-03 01:18:00,38.1,15.4,23.45,WSW,254,0.0,0.0,39,0.00,,---,0.00,VWS V14.00,2013-10-03 08:18:00,
2013-10-03 01:23:00,38.1,15.4,23.45,WSW,254,0.0,0.0,39,0.00,,---,0.00,VWS V14.00,2013-10-03 08:23:00,
2013-10-03 01:28:00,37.9,15.2,23.45,WSW,254,0.0,0.0,39,0.00,,---,0.00,VWS V14.00,2013-10-03 08:28:00,
2013-10-03 01:33:00,37.9,15.2,23.45,WSW,254,0.0,0.0,39,0.00,,---,0.00,VWS V14.00,2013-10-03 08:33:00,
2013-10-03 01:38:00,37.9,15.8,23.45,WSW,254,0.0,0.0,40,0.00,,---,0.00,VWS V14.00,2013-10-03 08:38:00,
2013-10-03 01:43:00,37.9,15.8,23.45,WSW,254,0.0,0.0,40,0.00,,---,0.00,VWS V14.00,2013-10-03 08:43:00,
2013-10-03 01:48:00,37.9,15.8,23.42,WSW,254,0.0,0.0,40,0.00,,---,0.00,VWS V14.00,2013-10-03 08:48:00,
2013-10-03 01:53:00,37.9,15.8,23.42,WSW,254,0.0,0.0,40,0.00,,---,0.00,VWS V14.00,2013-10-03 08:53:00,
2013-10-03 01:58:00,37.6,15.5,23.42,WSW,254,0.0,0.0,40,0.00,,---,0.00,VWS V14.00,2013-10-03 08:58:00,
2013-10-03 02:03:00,37.6,15.5,23.42,WSW,254,0.0,0.0,40,0.00,,---,0.00,VWS V14.00,2013-10-03 09:03:00,
2013-10-03 02:08:00,37.4,15.3,23.42,WSW,254,0.0,0.0,40,0.00,,---,0.00,VWS V14.00,2013-10-03 09:08:00,
2013-10-03 02:13:00,37.6,15.5,23.42,WSW,254,0.0,0.0,40,0.00,,---,0.00,VWS V14.00,2013-10-03 09:13:00,
2013-10-03 02:18:00,37.6,15.5,23.42,WSW,254,0.0,0.0,40,0.00,,---,0.00,VWS V14.00,2013-10-03 09:18:00,
2013-10-03 02:23:00,37.6,15.5,23.42,WSW,254,0.0,0.0,40,0.00,,---,0.00,VWS V14.00,2013-10-03 09:23:00,
2013-10-03 02:28:00,37.8,15.6,23.42,WSW,254,0.0,0.0,40,0.00,,---,0.00,VWS V14.00,2013-10-03 09:28:00,
2013-10-03 02:33:00,37.8,15.6,23.42,WSW,254,0.0,0.0,40,0.00,,---,0.00,VWS V14.00,2013-10-03 09:33:00,
2013-10-03 02:38:00,37.8,15.6,23.42,WSW,254,0.0,0.0,40,0.00,,---,0.00,VWS V14.00,2013-10-03 09:38:00,
2013-10-03 02:43:00,37.8,15.6,23.42,WSW,254,0.0,0.0,40,0.00,,---,0.00,VWS V14.00,2013-10-03 09:43:00,
2013-10-03 02:48:00,37.8,15.6,23.42,WSW,254,0.0,0.0,40,0.00,,---,0.00,VWS V14.00,2013-10-03 09:48:00,
2013-10-03 02:53:00,37.9,15.8,23.42,WSW,254,0.0,0.0,40,0.00,,---,0.00,VWS V14.00,2013-10-03 09:53:00,
2013-10-03 02:58:00,37.9,15.8,23.42,WSW,254,0.0,0.0,40,0.00,,---,0.00,VWS V14.00,2013-10-03 09:58:00,
2013-10-03 03:03:00,38.1,15.9,23.42,WSW,254,0.0,0.0,40,0.00,,---,0.00,VWS V14.00,2013-10-03 10:03:00,
2013-10-03 03:08:00,38.1,15.9,23.42,WSW,254,0.0,0.0,40,0.00,,---,0.00,VWS V14.00,2013-10-03 10:08:00,
2013-10-03 03:13:00,38.1,15.9,23.42,WSW,254,0.0,0.0,40,0.00,,---,0.00,VWS V14.00,2013-10-03 10:13:00,
2013-10-03 03:18:00,38.1,15.9,23.42,WSW,254,0.0,0.0,40,0.00,,---,0.00,VWS V14.00,2013-10-03 10:18:00,
2013-10-03 03:23:00,38.3,16.1,23.42,WSW,254,0.0,0.0,40,0.00,,---,0.00,VWS V14.00,2013-10-03 10:23:00,
2013-10-03 03:28:00,38.5,16.3,23.42,WSW,254,0.0,0.0,40,0.00,,---,0.00,VWS V14.00,2013-10-03 10:28:00,
2013-10-03 03:33:00,38.7,16.4,23.42,WSW,254,0.0,0.0,40,0.00,,---,0.00,VWS V14.00,2013-10-03 10:33:00,
2013-10-03 03:38:00,38.7,16.4,23.42,WSW,254,0.0,0.0,40,0.00,,---,0.00,VWS V14.00,2013-10-03 10:38:00,
2013-10-03 03:43:00,38.8,16.6,23.42,WSW,254,0.0,0.0,40,0.00,,---,0.00,VWS V14.00,2013-10-03 10:43:00,
2013-10-03 03:49:00,38.8,16.6,23.42,WSW,254,0.0,0.0,40,0.00,,---,0.00,VWS V14.00,2013-10-03 10:49:00,
2013-10-03 03:54:00,39.0,16.8,23.42,WSW,254,0.0,0.0,40,0.00,,---,0.00,VWS V14.00,2013-10-03 10:54:00,
2013-10-03 03:59:00,39.0,16.8,23.42,WSW,254,0.0,0.0,40,0.00,,---,0.00,VWS V14.00,2013-10-03 10:59:00,
2013-10-03 04:04:00,39.0,16.8,23.42,WSW,254,0.0,0.0,40,0.00,,---,0.00,VWS V14.00,2013-10-03 11:04:00,
2013-10-03 04:09:00,39.0,16.8,23.42,WSW,254,0.0,0.0,40,0.00,,---,0.00,VWS V14.00,2013-10-03 11:09:00,
2013-10-03 04:14:00,39.2,16.3,23.42,West,275,0.0,0.0,39,0.00,,---,0.00,VWS V14.00,2013-10-03 11:14:00,
2013-10-03 04:19:00,39.6,16.7,23.42,West,259,3.1,3.1,39,0.00,,---,0.00,VWS V14.00,2013-10-03 11:19:00,
2013-10-03 04:24:00,39.9,17.0,23.42,West,259,0.0,2.7,39,0.00,,---,0.00,VWS V14.00,2013-10-03 11:24:00,
2013-10-03 04:29:00,40.3,17.3,23.42,West,272,2.2,2.7,39,0.00,,---,0.00,VWS V14.00,2013-10-03 11:29:00,
2013-10-03 04:34:00,40.5,17.5,23.42,West,271,3.1,4.0,39,0.00,,---,0.00,VWS V14.00,2013-10-03 11:34:00,
2013-10-03 04:39:00,40.8,17.8,23.42,West,281,2.2,2.7,39,0.00,,---,0.00,VWS V14.00,2013-10-03 11:39:00,
2013-10-03 04:44:00,41.0,18.0,23.42,West,280,2.2,2.2,39,0.00,,---,0.00,VWS V14.00,2013-10-03 11:44:00,
2013-10-03 04:49:00,41.2,18.1,23.42,West,280,0.0,0.0,39,0.00,,---,0.00,VWS V14.00,2013-10-03 11:49:00,
2013-10-03 04:54:00,41.4,18.3,23.42,West,280,0.0,0.0,39,0.00,,---,0.00,VWS V14.00,2013-10-03 11:54:00,
2013-10-03 04:59:00,41.4,18.3,23.42,West,280,0.0,0.0,39,0.00,,---,0.00,VWS V14.00,2013-10-03 11:59:00,
2013-10-03 05:04:00,41.4,18.3,23.42,West,279,0.0,0.0,39,0.00,,---,0.00,VWS V14.00,2013-10-03 12:04:00,
2013-10-03 05:09:00,41.4,18.3,23.42,West,279,0.0,0.0,39,0.00,,---,0.00,VWS V14.00,2013-10-03 12:09:00,
2013-10-03 05:14:00,41.4,18.3,23.42,West,279,0.0,0.0,39,0.00,,---,0.00,VWS V14.00,2013-10-03 12:14:00,
2013-10-03 05:19:00,41.4,18.3,23.42,West,279,0.0,0.0,39,0.00,,---,0.00,VWS V14.00,2013-10-03 12:19:00,
2013-10-03 05:24:00,41.4,18.3,23.42,West,279,0.0,0.0,39,0.00,,---,0.00,VWS V14.00,2013-10-03 12:24:00,
2013-10-03 05:29:00,41.2,18.1,23.42,West,279,0.0,0.0,39,0.00,,---,0.00,VWS V14.00,2013-10-03 12:29:00,
2013-10-03 05:34:00,41.0,18.0,23.39,West,279,0.0,0.0,39,0.00,,---,0.00,VWS V14.00,2013-10-03 12:34:00,
2013-10-03 05:39:00,41.0,18.0,23.39,West,279,0.0,0.0,39,0.00,,---,0.00,VWS V14.00,2013-10-03 12:39:00,
2013-10-03 05:45:00,41.0,18.0,23.39,West,279,0.0,0.0,39,0.00,,---,0.00,VWS V14.00,2013-10-03 12:45:00,
2013-10-03 05:50:00,40.8,17.8,23.39,West,279,0.0,0.0,39,0.00,,---,0.00,VWS V14.00,2013-10-03 12:50:00,
2013-10-03 05:55:00,40.6,17.6,23.39,West,279,0.0,0.0,39,0.00,,---,0.00,VWS V14.00,2013-10-03 12:55:00,
2013-10-03 06:00:00,40.6,17.6,23.39,West,279,0.0,0.0,39,0.00,,---,0.00,VWS V14.00,2013-10-03 13:00:00,
2013-10-03 06:05:00,40.5,17.5,23.39,West,279,0.0,0.0,39,0.00,,---,0.00,VWS V14.00,2013-10-03 13:05:00,
2013-10-03 06:10:00,40.5,17.5,23.39,West,279,0.0,0.0,39,0.00,,---,0.00,VWS V14.00,2013-10-03 13:10:00,
2013-10-03 06:15:00,40.3,17.3,23.39,West,279,0.0,0.0,39,0.00,,---,0.00,VWS V14.00,2013-10-03 13:15:00,
2013-10-03 06:20:00,40.3,17.3,23.39,West,279,0.0,0.0,39,0.00,,---,0.00,VWS V14.00,2013-10-03 13:20:00,
2013-10-03 06:25:00,40.1,17.1,23.39,West,279,0.0,0.0,39,0.00,,---,0.00,VWS V14.00,2013-10-03 13:25:00,
2013-10-03 06:30:00,40.1,17.1,23.39,West,279,0.0,0.0,39,0.00,,---,0.00,VWS V14.00,2013-10-03 13:30:00,
2013-10-03 06:35:00,39.9,17.0,23.39,West,279,0.0,0.0,39,0.00,,---,0.00,VWS V14.00,2013-10-03 13:35:00,
2013-10-03 06:40:00,39.7,16.8,23.39,West,279,0.0,0.0,39,0.00,,---,0.00,VWS V14.00,2013-10-03 13:40:00,
2013-10-03 06:45:00,39.7,16.8,23.39,West,279,0.0,0.0,39,0.00,,---,0.00,VWS V14.00,2013-10-03 13:45:00,
2013-10-03 06:50:00,39.9,17.0,23.39,West,279,0.0,0.0,39,0.00,,---,0.00,VWS V14.00,2013-10-03 13:50:00,
2013-10-03 06:55:00,40.1,17.1,23.39,West,279,0.0,0.0,39,0.00,,---,0.00,VWS V14.00,2013-10-03 13:55:00,
2013-10-03 07:00:00,40.3,17.3,23.39,West,279,0.0,0.0,39,0.00,,---,0.00,VWS V14.00,2013-10-03 14:00:00,
2013-10-03 07:05:00,40.5,17.5,23.39,West,279,0.0,0.0,39,0.00,,---,0.00,VWS V14.00,2013-10-03 14:05:00,
2013-10-03 07:10:00,41.0,18.0,23.39,West,265,3.1,3.1,39,0.00,,---,0.00,VWS V14.00,2013-10-03 14:10:00,
2013-10-03 07:15:00,41.9,18.8,23.39,West,264,0.0,0.0,39,0.00,,---,0.00,VWS V14.00,2013-10-03 14:15:00,
2013-10-03 07:20:00,42.8,19.0,23.39,West,278,2.2,3.6,38,0.00,,---,0.00,VWS V14.00,2013-10-03 14:20:00,
2013-10-03 07:25:00,44.1,20.1,23.39,SW,236,2.7,4.0,38,0.00,,---,0.00,VWS V14.00,2013-10-03 14:25:00,
2013-10-03 07:30:00,45.5,21.4,23.39,SW,223,4.0,4.0,38,0.00,,---,0.00,VWS V14.00,2013-10-03 14:30:00,
2013-10-03 07:35:00,46.9,22.7,23.39,SW,231,2.7,2.7,38,0.00,,---,0.00,VWS V14.00,2013-10-03 14:35:00,
2013-10-03 07:40:00,48.4,23.3,23.39,SSW,210,4.0,4.0,37,0.00,,---,0.00,VWS V14.00,2013-10-03 14:40:00,
2013-10-03 07:45:00,49.3,24.1,23.39,WSW,241,3.1,3.1,37,0.00,,---,0.00,VWS V14.00,2013-10-03 14:45:00,
2013-10-03 07:50:00,50.2,24.9,23.39,WNW,283,0.0,0.0,37,0.00,,---,0.00,VWS V14.00,2013-10-03 14:50:00,
2013-10-03 07:55:00,51.1,25.7,23.39,SSW,207,3.6,4.9,37,0.00,,---,0.00,VWS V14.00,2013-10-03 14:55:00,
2013-10-03 08:00:00,51.8,25.7,23.39,West,267,2.2,4.0,36,0.00,,---,0.00,VWS V14.00,2013-10-03 15:00:00,
2013-10-03 08:06:00,52.3,26.2,23.39,SSW,210,4.0,4.0,36,0.00,,---,0.00,VWS V14.00,2013-10-03 15:06:00,
2013-10-03 08:11:00,52.9,26.7,23.39,SSW,202,2.7,3.1,36,0.00,,---,0.00,VWS V14.00,2013-10-03 15:11:00,
2013-10-03 08:16:00,53.2,27.0,23.39,WNW,282,0.0,5.8,36,0.00,,---,0.00,VWS V14.00,2013-10-03 15:16:00,
2013-10-03 08:21:00,53.6,27.3,23.39,WSW,248,4.0,4.0,36,0.00,,---,0.00,VWS V14.00,2013-10-03 15:21:00,
2013-10-03 08:26:00,54.0,27.6,23.39,NW,316,2.7,5.4,36,0.00,,---,0.00,VWS V14.00,2013-10-03 15:26:00,
2013-10-03 08:31:00,54.3,28.0,23.39,SSW,205,2.7,5.8,36,0.00,,---,0.00,VWS V14.00,2013-10-03 15:31:00,
2013-10-03 08:36:00,54.7,28.3,23.39,SW,218,7.6,7.6,36,0.00,,---,0.00,VWS V14.00,2013-10-03 15:36:00,
2013-10-03 08:41:00,55.0,28.6,23.39,WNW,286,2.2,2.7,36,0.00,,---,0.00,VWS V14.00,2013-10-03 15:41:00,
2013-10-03 08:46:00,55.2,28.8,23.39,West,262,5.4,5.8,36,0.00,,---,0.00,VWS V14.00,2013-10-03 15:46:00,
2013-10-03 08:51:00,55.4,28.2,23.39,SW,221,2.2,6.3,35,0.00,,---,0.00,VWS V14.00,2013-10-03 15:51:00,
2013-10-03 08:56:00,55.6,28.4,23.39,SW,221,4.0,4.0,35,0.00,,---,0.00,VWS V14.00,2013-10-03 15:56:00,
2013-10-03 09:01:00,55.8,28.5,23.39,South,178,3.6,7.6,35,0.00,,---,0.00,VWS V14.00,2013-10-03 16:01:00,
2013-10-03 09:06:00,55.8,28.5,23.39,SSW,196,2.7,3.1,35,0.00,,---,0.00,VWS V14.00,2013-10-03 16:06:00,
2013-10-03 09:11:00,55.9,28.7,23.39,SW,214,2.7,2.7,35,0.00,,---,0.00,VWS V14.00,2013-10-03 16:11:00,
2013-10-03 09:16:00,56.1,28.9,23.39,SSW,207,4.5,5.4,35,0.00,,---,0.00,VWS V14.00,2013-10-03 16:16:00,
2013-10-03 09:21:00,56.3,29.0,23.39,SW,214,2.7,5.8,35,0.00,,---,0.00,VWS V14.00,2013-10-03 16:21:00,
2013-10-03 09:26:00,56.5,29.2,23.39,WSW,244,4.9,4.9,35,0.00,,---,0.00,VWS V14.00,2013-10-03 16:26:00,
2013-10-03 09:31:00,56.7,29.3,23.39,WSW,237,2.2,5.4,35,0.00,,---,0.00,VWS V14.00,2013-10-03 16:31:00,
2013-10-03 09:36:00,57.0,29.7,23.39,WSW,252,2.7,5.4,35,0.00,,---,0.00,VWS V14.00,2013-10-03 16:36:00,
2013-10-03 09:41:00,57.4,30.0,23.39,SSW,203,3.6,5.8,35,0.00,,---,0.00,VWS V14.00,2013-10-03 16:41:00,
2013-10-03 09:46:00,57.7,30.3,23.39,SSW,205,3.1,5.8,35,0.00,,---,0.00,VWS V14.00,2013-10-03 16:46:00,
2013-10-03 09:51:00,58.1,30.6,23.39,WSW,257,8.3,8.3,35,0.00,,---,0.00,VWS V14.00,2013-10-03 16:51:00,
2013-10-03 09:56:00,58.5,30.9,23.39,West,276,6.3,6.3,35,0.00,,---,0.00,VWS V14.00,2013-10-03 16:56:00,
2013-10-03 10:01:00,59.2,31.6,23.39,SSW,192,4.9,5.4,35,0.00,,---,0.00,VWS V14.00,2013-10-03 17:01:00,
2013-10-03 10:07:00,59.9,32.2,23.39,WSW,240,3.6,5.8,35,0.00,,---,0.00,VWS V14.00,2013-10-03 17:07:00,
2013-10-03 10:12:00,60.6,32.8,23.39,SSW,211,2.7,5.4,35,0.00,,---,0.00,VWS V14.00,2013-10-03 17:12:00,
2013-10-03 10:17:00,61.5,32.9,23.39,West,274,5.8,5.8,34,0.00,,---,0.00,VWS V14.00,2013-10-03 17:17:00,
2013-10-03 10:22:00,62.2,33.5,23.39,SSE,163,5.4,6.3,34,0.00,,---,0.00,VWS V14.00,2013-10-03 17:22:00,
2013-10-03 10:27:00,63.1,34.3,23.39,South,190,3.6,4.0,34,0.00,,---,0.00,VWS V14.00,2013-10-03 17:27:00,
2013-10-03 10:32:00,64.0,35.1,23.39,South,182,5.4,8.1,34,0.00,,---,0.00,VWS V14.00,2013-10-03 17:32:00,
2013-10-03 10:37:00,65.1,35.3,23.39,SSW,196,3.6,5.8,33,0.00,,---,0.00,VWS V14.00,2013-10-03 17:37:00,
2013-10-03 10:42:00,65.8,36.0,23.39,SSW,200,4.0,6.3,33,0.00,,---,0.00,VWS V14.00,2013-10-03 17:42:00,
2013-10-03 10:47:00,66.4,36.4,23.39,SW,219,5.8,5.8,33,0.00,,---,0.00,VWS V14.00,2013-10-03 17:47:00,
2013-10-03 10:52:00,66.9,36.9,23.39,SSW,196,2.7,3.1,33,0.00,,---,0.00,VWS V14.00,2013-10-03 17:52:00,
2013-10-03 10:57:00,67.8,37.7,23.39,SSW,193,5.4,8.1,33,0.00,,---,0.00,VWS V14.00,2013-10-03 17:57:00,
2013-10-03 11:02:00,68.4,38.2,23.36,SSW,198,3.6,3.6,33,0.00,,---,0.00,VWS V14.00,2013-10-03 18:02:00,
2013-10-03 11:07:00,68.7,38.5,23.36,South,191,8.1,8.1,33,0.00,,---,0.00,VWS V14.00,2013-10-03 18:07:00,
2013-10-03 11:12:00,68.2,38.0,23.36,SSW,202,6.3,7.6,33,0.00,,---,0.00,VWS V14.00,2013-10-03 18:12:00,
2013-10-03 11:17:00,67.6,37.5,23.36,WSW,258,0.0,0.0,33,0.00,,---,0.00,VWS V14.00,2013-10-03 18:17:00,
2013-10-03 11:22:00,67.3,37.2,23.36,WNW,303,4.9,6.3,33,0.00,,---,0.00,VWS V14.00,2013-10-03 18:22:00,
2013-10-03 11:27:00,67.1,37.1,23.36,SSW,197,7.2,7.2,33,0.00,,---,0.00,VWS V14.00,2013-10-03 18:27:00,
2013-10-03 11:32:00,67.1,37.1,23.36,WSW,256,3.6,4.0,33,0.00,,---,0.00,VWS V14.00,2013-10-03 18:32:00,
2013-10-03 11:37:00,67.6,37.5,23.36,West,276,3.1,3.6,33,0.00,,---,0.00,VWS V14.00,2013-10-03 18:37:00,
2013-10-03 11:42:00,67.8,37.7,23.36,NW,305,5.8,5.8,33,0.00,,---,0.00,VWS V14.00,2013-10-03 18:42:00,
2013-10-03 11:48:00,68.4,38.2,23.36,WSW,247,4.9,6.3,33,0.00,,---,0.00,VWS V14.00,2013-10-03 18:48:00,
2013-10-03 11:53:00,68.7,38.5,23.36,SW,223,4.0,8.3,33,0.00,,---,0.00,VWS V14.00,2013-10-03 18:53:00,
2013-10-03 11:58:00,69.1,38.8,23.36,SSW,196,5.4,5.8,33,0.00,,---,0.00,VWS V14.00,2013-10-03 18:58:00,
2013-10-03 12:03:00,69.8,38.6,23.36,SSW,201,4.9,6.3,32,0.00,,---,0.00,VWS V14.00,2013-10-03 19:03:00,
2013-10-03 12:08:00,70.3,39.1,23.36,WNW,285,5.4,7.6,32,0.00,,---,0.00,VWS V14.00,2013-10-03 19:08:00,
2013-10-03 12:13:00,70.9,39.6,23.36,West,281,3.6,4.9,32,0.00,,---,0.00,VWS V14.00,2013-10-03 19:13:00,
2013-10-03 12:18:00,71.6,40.2,23.36,West,272,5.4,5.4,32,0.00,,---,0.00,VWS V14.00,2013-10-03 19:18:00,
2013-10-03 12:23:00,71.8,40.4,23.36,South,187,2.7,6.3,32,0.00,,---,0.00,VWS V14.00,2013-10-03 19:23:00,
2013-10-03 12:28:00,72.0,40.5,23.36,West,261,6.3,6.7,32,0.00,,---,0.00,VWS V14.00,2013-10-03 19:28:00,
2013-10-03 12:33:00,72.3,40.8,23.36,South,189,5.8,7.6,32,0.00,,---,0.00,VWS V14.00,2013-10-03 19:33:00,
2013-10-03 12:38:00,72.3,40.8,23.36,West,278,4.9,6.3,32,0.00,,---,0.00,VWS V14.00,2013-10-03 19:38:00,
2013-10-03 12:43:00,72.7,41.2,23.36,South,188,4.0,5.8,32,0.00,,---,0.00,VWS V14.00,2013-10-03 19:43:00,
2013-10-03 12:48:00,72.9,41.3,23.36,South,170,5.8,5.8,32,0.00,,---,0.00,VWS V14.00,2013-10-03 19:48:00,
2013-10-03 12:53:00,72.7,41.2,23.36,SSW,209,2.7,2.7,32,0.00,,---,0.00,VWS V14.00,2013-10-03 19:53:00,
2013-10-03 12:58:00,72.1,40.7,23.36,SW,225,4.0,5.4,32,0.00,,---,0.00,VWS V14.00,2013-10-03 19:58:00,
2013-10-03 13:03:00,71.8,40.4,23.33,WSW,252,5.8,5.8,32,0.00,,---,0.00,VWS V14.00,2013-10-03 20:03:00,
2013-10-03 13:08:00,70.9,39.6,23.33,South,182,5.4,5.4,32,0.00,,---,0.00,VWS V14.00,2013-10-03 20:08:00,
2013-10-03 13:13:00,70.0,38.8,23.33,SSE,166,4.0,4.9,32,0.00,,---,0.00,VWS V14.00,2013-10-03 20:13:00,
2013-10-03 13:18:00,68.9,38.6,23.33,South,185,7.6,7.6,33,0.00,,---,0.00,VWS V14.00,2013-10-03 20:18:00,
2013-10-03 13:23:00,68.0,37.8,23.33,SSE,152,5.8,6.3,33,0.00,,---,0.00,VWS V14.00,2013-10-03 20:23:00,
2013-10-03 13:28:00,67.3,37.2,23.33,South,171,6.3,6.3,33,0.00,,---,0.00,VWS V14.00,2013-10-03 20:28:00,
2013-10-03 13:33:00,66.9,36.9,23.33,West,260,3.1,10.5,33,0.00,,---,0.00,VWS V14.00,2013-10-03 20:33:00,
2013-10-03 13:38:00,66.4,36.4,23.33,SSW,195,8.3,12.8,33,0.00,,---,0.00,VWS V14.00,2013-10-03 20:38:00,
2013-10-03 13:43:00,66.0,36.1,23.33,SSW,205,7.6,8.7,33,0.00,,---,0.00,VWS V14.00,2013-10-03 20:43:00,
2013-10-03 13:48:00,65.7,35.8,23.33,SW,232,4.0,6.3,33,0.00,,---,0.00,VWS V14.00,2013-10-03 20:48:00,
2013-10-03 13:53:00,65.7,35.8,23.33,SSW,209,3.1,3.6,33,0.00,,---,0.00,VWS V14.00,2013-10-03 20:53:00,
2013-10-03 13:58:00,65.5,35.6,23.33,SSW,204,5.8,8.3,33,0.00,,---,0.00,VWS V14.00,2013-10-03 20:58:00,
2013-10-03 14:03:00,65.3,35.5,23.30,SW,223,6.3,8.3,33,0.00,,---,0.00,VWS V14.00,2013-10-03 21:03:00,
2013-10-03 14:08:00,65.3,35.5,23.30,SSW,210,6.3,10.5,33,0.00,,---,0.00,VWS V14.00,2013-10-03 21:08:00,
2013-10-03 14:13:00,65.3,35.5,23.30,SSW,202,6.7,6.7,33,0.00,,---,0.00,VWS V14.00,2013-10-03 21:13:00,
2013-10-03 14:19:00,65.3,35.5,23.30,SSW,212,5.8,5.8,33,0.00,,---,0.00,VWS V14.00,2013-10-03 21:19:00,
2013-10-03 14:24:00,65.1,35.3,23.30,WSW,251,3.1,8.3,33,0.00,,---,0.00,VWS V14.00,2013-10-03 21:24:00,
2013-10-03 14:29:00,65.1,35.3,23.30,SSW,199,6.3,6.3,33,0.00,,---,0.00,VWS V14.00,2013-10-03 21:29:00,
2013-10-03 14:34:00,65.1,35.3,23.30,South,169,5.4,6.3,33,0.00,,---,0.00,VWS V14.00,2013-10-03 21:34:00,
2013-10-03 14:39:00,65.1,35.3,23.30,WNW,288,8.1,8.1,33,0.00,,---,0.00,VWS V14.00,2013-10-03 21:39:00,
2013-10-03 14:44:00,65.1,35.3,23.30,South,188,2.7,5.4,33,0.00,,---,0.00,VWS V14.00,2013-10-03 21:44:00,
2013-10-03 14:49:00,65.3,35.5,23.30,South,191,4.0,5.4,33,0.00,,---,0.00,VWS V14.00,2013-10-03 21:49:00,
2013-10-03 14:54:00,65.3,35.5,23.30,WSW,240,12.3,12.3,33,0.00,,---,0.00,VWS V14.00,2013-10-03 21:54:00,
2013-10-03 14:59:00,65.1,35.3,23.30,NW,305,4.0,8.7,33,0.00,,---,0.00,VWS V14.00,2013-10-03 21:59:00,
2013-10-03 15:04:00,65.1,35.3,23.30,SSW,194,3.1,14.1,33,0.00,,---,0.00,VWS V14.00,2013-10-03 22:04:00,
2013-10-03 15:09:00,64.9,35.2,23.30,WSW,246,4.0,8.1,33,0.00,,---,0.00,VWS V14.00,2013-10-03 22:09:00,
2013-10-03 15:14:00,64.8,35.0,23.30,SSW,198,3.1,5.8,33,0.00,,---,0.00,VWS V14.00,2013-10-03 22:14:00,
2013-10-03 15:19:00,64.8,35.0,23.30,SSW,199,5.4,8.3,33,0.00,,---,0.00,VWS V14.00,2013-10-03 22:19:00,
2013-10-03 15:24:00,64.9,35.2,23.30,SSW,200,4.0,6.7,33,0.00,,---,0.00,VWS V14.00,2013-10-03 22:24:00,
2013-10-03 15:29:00,65.1,35.3,23.30,South,189,5.8,8.3,33,0.00,,---,0.00,VWS V14.00,2013-10-03 22:29:00,
2013-10-03 15:34:00,65.1,35.3,23.30,WSW,247,11.0,11.0,33,0.00,,---,0.00,VWS V14.00,2013-10-03 22:34:00,
2013-10-03 15:39:00,64.9,35.2,23.30,SSW,209,5.8,7.2,33,0.00,,---,0.00,VWS V14.00,2013-10-03 22:39:00,
2013-10-03 15:44:00,64.9,35.2,23.30,West,265,5.4,5.4,33,0.00,,---,0.00,VWS V14.00,2013-10-03 22:44:00,
2013-10-03 15:49:00,64.8,35.0,23.30,West,268,3.1,6.3,33,0.00,,---,0.00,VWS V14.00,2013-10-03 22:49:00,
2013-10-03 15:54:00,64.8,35.0,23.30,SSW,195,3.6,4.0,33,0.00,,---,0.00,VWS V14.00,2013-10-03 22:54:00,
2013-10-03 15:59:00,65.3,35.5,23.30,SW,220,5.8,7.6,33,0.00,,---,0.00,VWS V14.00,2013-10-03 22:59:00,
2013-10-03 16:04:00,65.7,35.8,23.30,SSE,166,5.4,6.3,33,0.00,,---,0.00,VWS V14.00,2013-10-03 23:04:00,
2013-10-03 16:09:00,66.0,36.1,23.30,SSW,193,3.1,4.0,33,0.00,,---,0.00,VWS V14.00,2013-10-03 23:09:00,
2013-10-03 16:14:00,66.2,36.3,23.30,South,169,7.6,7.6,33,0.00,,---,0.00,VWS V14.00,2013-10-03 23:14:00,
2013-10-03 16:19:00,66.4,36.4,23.30,South,181,3.1,6.7,33,0.00,,---,0.00,VWS V14.00,2013-10-03 23:19:00,
2013-10-03 16:24:00,66.4,36.4,23.30,SSW,203,5.8,5.8,33,0.00,,---,0.00,VWS V14.00,2013-10-03 23:24:00,
2013-10-03 16:29:00,66.2,36.3,23.30,SSE,156,2.7,7.6,33,0.00,,---,0.00,VWS V14.00,2013-10-03 23:29:00,
2013-10-03 16:34:00,65.7,35.8,23.30,SW,220,2.7,3.1,33,0.00,,---,0.00,VWS V14.00,2013-10-03 23:34:00,
2013-10-03 16:39:00,65.5,35.6,23.30,SSW,205,5.4,5.8,33,0.00,,---,0.00,VWS V14.00,2013-10-03 23:39:00,
2013-10-03 16:45:00,65.3,35.5,23.30,SSW,195,3.1,3.1,33,0.00,,---,0.00,VWS V14.00,2013-10-03 23:45:00,
2013-10-03 16:50:00,64.8,35.0,23.30,SSE,154,6.3,6.3,33,0.00,,---,0.00,VWS V14.00,2013-10-03 23:50:00,
2013-10-03 16:55:00,64.2,35.3,23.30,West,265,3.6,4.0,34,0.00,,---,0.00,VWS V14.00,2013-10-03 23:55:00,
2013-10-03 17:00:00,63.7,34.8,23.30,SSW,205,3.1,4.9,34,0.00,,---,0.00,VWS V14.00,2013-10-04 00:00:00,
2013-10-03 17:05:00,63.1,34.3,23.30,SW,229,4.0,4.0,34,0.00,,---,0.00,VWS V14.00,2013-10-04 00:05:00,
2013-10-03 17:10:00,62.8,34.0,23.30,WNW,289,4.0,4.0,34,0.00,,---,0.00,VWS V14.00,2013-10-04 00:10:00,
2013-10-03 17:15:00,62.4,33.7,23.30,WSW,248,2.7,2.7,34,0.00,,---,0.00,VWS V14.00,2013-10-04 00:15:00,
2013-10-03 17:20:00,62.1,33.4,23.30,SSW,200,5.4,5.4,34,0.00,,---,0.00,VWS V14.00,2013-10-04 00:20:00,
2013-10-03 17:25:00,61.7,33.1,23.30,SW,225,4.9,6.3,34,0.00,,---,0.00,VWS V14.00,2013-10-04 00:25:00,
2013-10-03 17:30:00,61.2,32.6,23.30,SW,219,3.6,6.7,34,0.00,,---,0.00,VWS V14.00,2013-10-04 00:30:00,
2013-10-03 17:35:00,60.8,32.3,23.30,West,277,3.6,5.8,34,0.00,,---,0.00,VWS V14.00,2013-10-04 00:35:00,
2013-10-03 17:40:00,60.4,32.7,23.30,SSW,201,0.0,2.7,35,0.00,,---,0.00,VWS V14.00,2013-10-04 00:40:00,
2013-10-03 17:45:00,60.1,32.4,23.30,WSW,247,4.0,4.0,35,0.00,,---,0.00,VWS V14.00,2013-10-04 00:45:00,
2013-10-03 17:50:00,59.7,32.0,23.30,WSW,250,3.6,4.0,35,0.00,,---,0.00,VWS V14.00,2013-10-04 00:50:00,
2013-10-03 17:55:00,59.4,31.7,23.30,West,261,4.0,4.0,35,0.00,,---,0.00,VWS V14.00,2013-10-04 00:55:00,
2013-10-03 18:00:00,58.8,31.2,23.30,WSW,241,2.7,2.7,35,0.00,,---,0.00,VWS V14.00,2013-10-04 01:00:00,
2013-10-03 18:05:00,58.5,30.9,23.30,WNW,293,2.7,4.0,35,0.00,,---,0.00,VWS V14.00,2013-10-04 01:05:00,
2013-10-03 18:10:00,58.3,30.8,23.30,SW,228,2.7,3.1,35,0.00,,---,0.00,VWS V14.00,2013-10-04 01:10:00,
2013-10-03 18:15:00,57.9,30.5,23.30,WSW,258,6.3,11.0,35,0.00,,---,0.00,VWS V14.00,2013-10-04 01:15:00,
2013-10-03 18:20:00,57.7,30.3,23.30,West,273,3.6,3.6,35,0.00,,---,0.00,VWS V14.00,2013-10-04 01:20:00,
2013-10-03 18:25:00,57.6,30.1,23.30,SW,222,4.0,4.0,35,0.00,,---,0.00,VWS V14.00,2013-10-04 01:25:00,
2013-10-03 18:30:00,57.2,29.8,23.30,SSW,212,4.0,5.8,35,0.00,,---,0.00,VWS V14.00,2013-10-04 01:30:00,
2013-10-03 18:35:00,57.0,29.7,23.33,SW,222,3.1,5.4,35,0.00,,---,0.00,VWS V14.00,2013-10-04 01:35:00,
2013-10-03 18:40:00,56.8,29.5,23.33,WNW,297,2.7,4.9,35,0.00,,---,0.00,VWS V14.00,2013-10-04 01:40:00,
2013-10-03 18:45:00,56.7,29.3,23.33,SW,231,2.7,4.9,35,0.00,,---,0.00,VWS V14.00,2013-10-04 01:45:00,
2013-10-03 18:50:00,56.5,29.2,23.33,WSW,237,8.1,8.1,35,0.00,,---,0.00,VWS V14.00,2013-10-04 01:50:00,
2013-10-03 18:55:00,56.3,29.0,23.33,WNW,283,3.1,3.6,35,0.00,,---,0.00,VWS V14.00,2013-10-04 01:55:00,
2013-10-03 19:00:00,56.1,28.9,23.33,SW,231,3.1,6.3,35,0.00,,---,0.00,VWS V14.00,2013-10-04 02:00:00,
2013-10-03 19:06:00,56.1,28.9,23.33,West,276,5.4,7.2,35,0.00,,---,0.00,VWS V14.00,2013-10-04 02:06:00,
2013-10-03 19:11:00,55.9,28.7,23.33,SW,235,3.1,3.6,35,0.00,,---,0.00,VWS V14.00,2013-10-04 02:11:00,
2013-10-03 19:16:00,55.9,28.7,23.33,West,261,4.5,6.3,35,0.00,,---,0.00,VWS V14.00,2013-10-04 02:16:00,
2013-10-03 19:21:00,55.8,28.5,23.33,SW,234,6.3,8.1,35,0.00,,---,0.00,VWS V14.00,2013-10-04 02:21:00,
2013-10-03 19:26:00,55.8,28.5,23.33,SSW,213,4.9,5.8,35,0.00,,---,0.00,VWS V14.00,2013-10-04 02:26:00,
2013-10-03 19:31:00,55.6,28.4,23.33,West,259,6.3,6.3,35,0.00,,---,0.00,VWS V14.00,2013-10-04 02:31:00,
2013-10-03 19:36:00,55.4,28.2,23.33,WNW,283,3.1,5.8,35,0.00,,---,0.00,VWS V14.00,2013-10-04 02:36:00,
2013-10-03 19:41:00,55.4,28.2,23.33,West,267,4.0,6.3,35,0.00,,---,0.00,VWS V14.00,2013-10-04 02:41:00,
2013-10-03 19:46:00,55.2,28.8,23.33,West,264,2.7,5.8,36,0.00,,---,0.00,VWS V14.00,2013-10-04 02:46:00,
2013-10-03 19:51:00,55.0,28.6,23.33,WNW,294,3.6,5.4,36,0.00,,---,0.00,VWS V14.00,2013-10-04 02:51:00,
2013-10-03 19:56:00,55.0,28.6,23.33,SW,227,3.1,3.1,36,0.00,,---,0.00,VWS V14.00,2013-10-04 02:56:00,
2013-10-03 20:01:00,54.9,28.4,23.33,WSW,253,3.6,6.3,36,0.00,,---,0.00,VWS V14.00,2013-10-04 03:01:00,
2013-10-03 20:06:00,54.7,28.3,23.33,West,261,2.7,5.8,36,0.00,,---,0.00,VWS V14.00,2013-10-04 03:06:00,
2013-10-03 20:11:00,54.5,28.1,23.33,WSW,253,2.7,3.1,36,0.00,,---,0.00,VWS V14.00,2013-10-04 03:11:00,
2013-10-03 20:16:00,54.5,28.1,23.33,West,281,4.9,4.9,36,0.00,,---,0.00,VWS V14.00,2013-10-04 03:16:00,
2013-10-03 20:21:00,54.3,28.0,23.33,West,261,2.7,3.1,36,0.00,,---,0.00,VWS V14.00,2013-10-04 03:21:00,
2013-10-03 20:26:00,54.1,27.8,23.33,SSW,201,3.1,6.7,36,0.00,,---,0.00,VWS V14.00,2013-10-04 03:26:00,
2013-10-03 20:31:00,54.0,27.6,23.33,WSW,238,4.9,5.8,36,0.00,,---,0.00,VWS V14.00,2013-10-04 03:31:00,
2013-10-03 20:36:00,53.8,27.5,23.33,West,276,3.6,3.6,36,0.00,,---,0.00,VWS V14.00,2013-10-04 03:36:00,
2013-10-03 20:41:00,53.6,27.3,23.33,West,272,4.0,4.0,36,0.00,,---,0.00,VWS V14.00,2013-10-04 03:41:00,
2013-10-03 20:46:00,53.6,27.3,23.33,West,276,6.3,6.3,36,0.00,,---,0.00,VWS V14.00,2013-10-04 03:46:00,
2013-10-03 20:51:00,53.4,27.1,23.36,SW,227,3.1,5.8,36,0.00,,---,0.00,VWS V14.00,2013-10-04 03:51:00,
2013-10-03 20:56:00,53.4,27.1,23.36,SSW,205,2.2,3.6,36,0.00,,---,0.00,VWS V14.00,2013-10-04 03:56:00,
2013-10-03 21:33:00,52.2,26.0,23.36,West,259,2.2,5.8,36,0.00,,---,0.00,VWS V14.00,2013-10-04 04:33:00,
2013-10-03 21:34:00,52.2,26.0,23.36,West,279,3.6,3.6,36,0.00,,---,0.00,VWS V14.00,2013-10-04 04:34:00,
2013-10-03 21:37:00,52.0,25.9,23.36,SSW,205,2.2,4.0,36,0.00,,---,0.00,VWS V14.00,2013-10-04 04:37:00,
2013-10-03 21:40:00,51.8,25.7,23.36,SW,220,2.7,6.3,36,0.00,,---,0.00,VWS V14.00,2013-10-04 04:40:00,
2013-10-03 21:43:00,51.8,25.7,23.36,WSW,247,5.8,5.8,36,0.00,,---,0.00,VWS V14.00,2013-10-04 04:43:00,
2013-10-03 21:45:00,51.8,25.7,23.36,WSW,247,3.1,3.1,36,0.00,,---,0.00,VWS V14.00,2013-10-04 04:45:00,
2013-10-03 21:50:00,51.6,26.2,23.36,WSW,251,3.1,3.6,37,0.00,,---,0.00,VWS V14.00,2013-10-04 04:50:00,
2013-10-03 21:52:00,51.6,26.2,23.36,SW,226,3.6,5.8,37,0.00,,---,0.00,VWS V14.00,2013-10-04 04:52:00,
2013-10-03 21:57:00,51.4,26.0,23.36,West,269,3.1,3.1,37,0.00,,---,0.00,VWS V14.00,2013-10-04 04:57:00,
2013-10-03 22:00:00,51.3,25.9,23.36,WNW,290,2.7,4.9,37,0.00,,---,0.00,VWS V14.00,2013-10-04 05:00:00,
2013-10-03 22:05:00,51.3,25.9,23.36,SW,217,2.7,3.6,37,0.00,,---,0.00,VWS V14.00,2013-10-04 05:05:00,
2013-10-03 22:10:00,51.1,25.7,23.36,NW,313,4.0,4.0,37,0.00,,---,0.00,VWS V14.00,2013-10-04 05:10:00,
2013-10-03 22:15:00,50.9,25.6,23.36,SW,229,5.8,5.8,37,0.00,,---,0.00,VWS V14.00,2013-10-04 05:15:00,
2013-10-03 22:17:00,50.9,25.6,23.36,West,280,0.0,4.0,37,0.00,,---,0.00,VWS V14.00,2013-10-04 05:17:00,
2013-10-03 22:20:00,50.7,25.4,23.36,SW,222,2.7,3.6,37,0.00,,---,0.00,VWS V14.00,2013-10-04 05:20:00,
2013-10-03 22:27:00,50.5,25.2,23.36,West,271,0.0,0.0,37,0.00,,---,0.00,VWS V14.00,2013-10-04 05:27:00,
2013-10-03 22:28:00,50.4,25.1,23.36,West,271,0.0,0.0,37,0.00,,---,0.00,VWS V14.00,2013-10-04 05:28:00,
2013-10-03 22:33:00,50.0,24.8,23.36,West,271,0.0,0.0,37,0.00,,---,0.00,VWS V14.00,2013-10-04 05:33:00,
2013-10-03 22:38:00,49.3,24.1,23.36,West,271,0.0,0.0,37,0.00,,---,0.00,VWS V14.00,2013-10-04 05:38:00,
2013-10-03 22:43:00,48.7,23.6,23.36,West,271,0.0,0.0,37,0.00,,---,0.00,VWS V14.00,2013-10-04 05:43:00,
2013-10-03 22:48:00,48.2,23.2,23.39,West,271,0.0,0.0,37,0.00,,---,0.00,VWS V14.00,2013-10-04 05:48:00,
2013-10-03 22:53:00,47.7,22.7,23.39,West,271,0.0,0.0,37,0.00,,---,0.00,VWS V14.00,2013-10-04 05:53:00,
2013-10-03 22:58:00,47.3,22.4,23.39,West,271,0.0,0.0,37,0.00,,---,0.00,VWS V14.00,2013-10-04 05:58:00,
2013-10-03 23:03:00,46.8,21.9,23.39,West,271,0.0,0.0,37,0.00,,---,0.00,VWS V14.00,2013-10-04 06:03:00,
2013-10-03 23:08:00,46.4,21.6,23.39,West,271,0.0,0.0,37,0.00,,---,0.00,VWS V14.00,2013-10-04 06:08:00,
2013-10-03 23:13:00,45.9,21.7,23.39,West,271,0.0,0.0,38,0.00,,---,0.00,VWS V14.00,2013-10-04 06:13:00,
2013-10-03 23:18:00,45.1,21.1,23.39,West,271,0.0,0.0,38,0.00,,---,0.00,VWS V14.00,2013-10-04 06:18:00,
2013-10-03 23:23:00,44.6,20.6,23.39,West,271,0.0,0.0,38,0.00,,---,0.00,VWS V14.00,2013-10-04 06:23:00,
2013-10-03 23:28:00,44.1,20.1,23.39,West,273,0.0,0.0,38,0.00,,---,0.00,VWS V14.00,2013-10-04 06:28:00,
2013-10-03 23:33:00,43.9,19.9,23.39,West,273,0.0,0.0,38,0.00,,---,0.00,VWS V14.00,2013-10-04 06:33:00,
2013-10-03 23:38:00,43.7,19.8,23.39,West,273,0.0,0.0,38,0.00,,---,0.00,VWS V14.00,2013-10-04 06:38:00,
2013-10-03 23:43:00,43.3,19.5,23.39,West,273,0.0,0.0,38,0.00,,---,0.00,VWS V14.00,2013-10-04 06:43:00,
2013-10-03 23:48:00,42.8,19.0,23.39,West,273,0.0,0.0,38,0.00,,---,0.00,VWS V14.00,2013-10-04 06:48:00,
2013-10-03 23:53:00,42.4,19.2,23.39,West,273,0.0,0.0,39,0.00,,---,0.00,VWS V14.00,2013-10-04 06:53:00,
2013-10-03 23:58:00,42.3,19.1,23.39,West,273,0.0,0.0,39,0.00,,---,0.00,VWS V14.00,2013-10-04 06:58:00,